createdAt,value
2023-03-29T00:00:37.510Z,101577.61
2023-03-29T00:03:18.279Z,101578.77
2023-03-29T00:05:46.554Z,101575.44
2023-03-29T00:08:14.700Z,101578.84
2023-03-29T00:10:42.822Z,101575.42
2023-03-29T00:13:10.922Z,101576.50
2023-03-29T00:15:38.852Z,101570.79
2023-03-29T00:18:06.782Z,101568.58
2023-03-29T00:20:34.808Z,101570.60
2023-03-29T00:23:02.706Z,101575.09
2023-03-29T00:25:30.475Z,101572.42
2023-03-29T00:27:58.417Z,101571.80
2023-03-29T00:30:26.362Z,101565.91
2023-03-29T00:32:54.454Z,101563.45
2023-03-29T00:35:22.397Z,101560.70
2023-03-29T00:37:51.091Z,101561.25
2023-03-29T00:40:19.925Z,101562.61
2023-03-29T00:42:47.858Z,101558.91
2023-03-29T00:45:22.994Z,101557.65
2023-03-29T00:48:03.091Z,101562.10
2023-03-29T00:50:39.929Z,101562.08
2023-03-29T00:53:13.320Z,101557.65
2023-03-29T00:55:48.038Z,101552.15
2023-03-29T00:58:21.350Z,101546.21
2023-03-29T01:00:57.962Z,101545.92
2023-03-29T01:03:30.376Z,101542.80
2023-03-29T01:06:04.583Z,101538.25
2023-03-29T01:08:38.032Z,101536.21
2023-03-29T01:11:17.863Z,101530.58
2023-03-29T01:14:15.368Z,101526.39
2023-03-29T01:16:43.639Z,101523.40
2023-03-29T01:19:15.775Z,101522.95
2023-03-29T01:21:51.675Z,101520.56
2023-03-29T01:24:38.245Z,101518.06
2023-03-29T01:27:37.996Z,101521.42
2023-03-29T01:30:13.298Z,101524.55
2023-03-29T01:32:51.272Z,101522.70
2023-03-29T01:35:32.736Z,101520.83
2023-03-29T01:38:13.458Z,101517.84
2023-03-29T01:40:42.197Z,101519.73
2023-03-29T01:43:34.343Z,101514.91
2023-03-29T01:46:11.621Z,101510.40
2023-03-29T01:48:49.974Z,101508.09
2023-03-29T01:51:26.535Z,101508.60
2023-03-29T01:54:01.474Z,101506.97
2023-03-29T01:56:36.968Z,101499.51
2023-03-29T01:59:11.242Z,101499.52
2023-03-29T02:01:49.418Z,101498.25
2023-03-29T02:04:29.146Z,101497.56
2023-03-29T02:07:00.893Z,101501.71
2023-03-29T02:09:30.435Z,101496.45
2023-03-29T02:12:00.979Z,101491.92
2023-03-29T02:14:30.560Z,101491.07
2023-03-29T02:17:32.404Z,101489.77
2023-03-29T02:20:23.470Z,101496.35
2023-03-29T02:23:18.224Z,101492.94
2023-03-29T02:25:47.882Z,101490.57
2023-03-29T02:28:17.306Z,101487.79
2023-03-29T02:31:15.084Z,101486.69
2023-03-29T02:33:57.283Z,101482.80
2023-03-29T02:36:40.867Z,101480.25
2023-03-29T02:39:13.839Z,101473.90
2023-03-29T02:41:45.944Z,101470.30
2023-03-29T02:44:21.696Z,101464.73
2023-03-29T02:46:53.160Z,101465.88
2023-03-29T02:49:21.681Z,101461.77
2023-03-29T02:51:53.738Z,101464.14
2023-03-29T02:54:26.007Z,101460.03
2023-03-29T02:57:00.401Z,101453.77
2023-03-29T02:59:30.131Z,101444.60
2023-03-29T03:01:58.483Z,101441.48
2023-03-29T03:04:28.161Z,101439.01
2023-03-29T03:06:56.323Z,101446.12
2023-03-29T03:09:24.302Z,101445.14
2023-03-29T03:11:53.857Z,101442.84
2023-03-29T03:14:23.079Z,101437.20
2023-03-29T03:16:52.923Z,101438.80
2023-03-29T03:19:21.596Z,101437.98
2023-03-29T03:21:51.166Z,101437.13
2023-03-29T03:24:19.197Z,101440.25
2023-03-29T03:26:47.222Z,101437.64
2023-03-29T03:29:16.405Z,101435.05
2023-03-29T03:32:04.418Z,101432.33
2023-03-29T03:35:12.453Z,101434.39
2023-03-29T03:37:41.579Z,101433.28
2023-03-29T03:40:11.799Z,101435.61
2023-03-29T03:42:41.326Z,101436.75
2023-03-29T03:45:10.719Z,101436.20
2023-03-29T03:47:47.350Z,101427.72
2023-03-29T03:50:24.490Z,101429.12
2023-03-29T03:52:52.872Z,101429.98
2023-03-29T03:55:22.150Z,101431.20
2023-03-29T03:58:17.900Z,101428.23
2023-03-29T04:00:48.986Z,101432.59
2023-03-29T04:03:26.526Z,101430.13
2023-03-29T04:05:54.644Z,101428.92
2023-03-29T04:08:25.026Z,101419.86
2023-03-29T04:11:32.090Z,101417.98
2023-03-29T04:14:00.626Z,101419.05
2023-03-29T04:16:44.978Z,101421.01
2023-03-29T04:19:36.147Z,101414.02
2023-03-29T04:22:04.016Z,101416.91
2023-03-29T04:24:32.043Z,101416.01
2023-03-29T04:27:18.536Z,101414.05
2023-03-29T04:29:46.966Z,101410.23
2023-03-29T04:32:27.697Z,101412.79
2023-03-29T04:35:09.355Z,101413.06
2023-03-29T04:37:40.506Z,101408.11
2023-03-29T04:40:14.076Z,101409.71
2023-03-29T04:43:00.165Z,101410.08
2023-03-29T04:45:29.803Z,101411.17
2023-03-29T04:48:08.466Z,101405.16
2023-03-29T04:50:37.634Z,101404.14
2023-03-29T04:53:06.043Z,101400.98
2023-03-29T04:55:33.977Z,101396.82
2023-03-29T04:58:04.991Z,101398.58
2023-03-29T05:00:38.040Z,101392.64
2023-03-29T05:03:24.069Z,101385.04
2023-03-29T05:06:07.409Z,101380.22
2023-03-29T05:08:40.072Z,101377.19
2023-03-29T05:11:21.953Z,101377.11
2023-03-29T05:13:49.935Z,101378.63
2023-03-29T05:16:18.799Z,101375.80
2023-03-29T05:18:46.649Z,101376.56
2023-03-29T05:21:15.687Z,101377.41
2023-03-29T05:23:45.002Z,101373.65
2023-03-29T05:26:31.685Z,101369.98
2023-03-29T05:28:59.503Z,101372.13
2023-03-29T05:31:28.311Z,101369.35
2023-03-29T05:33:56.627Z,101370.70
2023-03-29T05:36:24.873Z,101371.83
2023-03-29T05:38:52.965Z,101371.33
2023-03-29T05:41:22.821Z,101372.87
2023-03-29T05:43:50.674Z,101375.34
2023-03-29T05:46:19.579Z,101373.89
2023-03-29T05:48:51.666Z,101373.23
2023-03-29T05:51:24.264Z,101379.11
2023-03-29T05:53:54.964Z,101377.70
2023-03-29T05:56:22.873Z,101376.23
2023-03-29T05:58:54.995Z,101369.27
2023-03-29T06:01:27.264Z,101368.94
2023-03-29T06:03:59.548Z,101369.73
2023-03-29T06:06:37.765Z,101371.77
2023-03-29T06:09:05.702Z,101368.11
2023-03-29T06:11:40.842Z,101363.89
2023-03-29T06:14:08.770Z,101359.37
2023-03-29T06:16:42.859Z,101356.89
2023-03-29T06:19:11.364Z,101351.98
2023-03-29T06:21:39.494Z,101353.23
2023-03-29T06:24:07.851Z,101355.50
2023-03-29T06:26:40.490Z,101359.33
2023-03-29T06:29:09.356Z,101359.27
2023-03-29T06:31:40.907Z,101358.30
2023-03-29T06:34:10.001Z,101358.22
2023-03-29T06:37:04.207Z,101358.58
2023-03-29T06:39:33.203Z,101355.80
2023-03-29T06:42:22.723Z,101351.71
2023-03-29T06:45:11.078Z,101353.36
2023-03-29T06:47:41.179Z,101349.66
2023-03-29T06:50:10.305Z,101346.89
2023-03-29T06:52:46.255Z,101343.61
2023-03-29T06:55:15.966Z,101343.51
2023-03-29T06:57:44.447Z,101346.33
2023-03-29T07:00:19.378Z,101345.41
2023-03-29T07:03:06.942Z,101348.36
2023-03-29T07:05:42.122Z,101339.64
2023-03-29T07:08:14.251Z,101335.80
2023-03-29T07:11:04.117Z,101339.40
2023-03-29T07:13:49.220Z,101341.63
2023-03-29T07:16:19.882Z,101341.05
2023-03-29T07:19:08.994Z,101341.03
2023-03-29T07:21:53.431Z,101338.06
2023-03-29T07:24:23.421Z,101338.11
2023-03-29T07:27:03.169Z,101334.61
2023-03-29T07:29:33.338Z,101333.53
2023-03-29T07:32:01.312Z,101332.05
2023-03-29T07:34:44.757Z,101341.11
2023-03-29T07:37:27.051Z,101343.96
2023-03-29T07:39:56.882Z,101342.33
2023-03-29T07:42:40.694Z,101344.59
2023-03-29T07:45:11.374Z,101341.19
2023-03-29T07:47:49.195Z,101335.24
2023-03-29T07:50:18.148Z,101333.42
2023-03-29T07:52:46.278Z,101333.84
2023-03-29T07:55:14.852Z,101330.27
2023-03-29T07:57:57.711Z,101327.47
2023-03-29T08:00:26.074Z,101326.45
2023-03-29T08:03:09.356Z,101323.85
2023-03-29T08:05:41.177Z,101321.80
2023-03-29T08:08:14.945Z,101319.79
2023-03-29T08:10:53.686Z,101319.30
2023-03-29T08:13:47.735Z,101313.70
2023-03-29T08:16:18.468Z,101316.61
2023-03-29T08:18:52.720Z,101313.05
2023-03-29T08:21:21.777Z,101304.90
2023-03-29T08:23:51.267Z,101305.02
2023-03-29T08:26:26.946Z,101300.58
2023-03-29T08:28:55.518Z,101298.92
2023-03-29T08:31:24.299Z,101297.95
2023-03-29T08:33:53.312Z,101295.85
2023-03-29T08:36:40.530Z,101290.71
2023-03-29T08:39:22.492Z,101296.33
2023-03-29T08:42:19.287Z,101295.20
2023-03-29T08:45:06.219Z,101295.52
2023-03-29T08:47:43.302Z,101288.54
2023-03-29T08:50:14.730Z,101286.63
2023-03-29T08:53:01.086Z,101285.65
2023-03-29T08:56:04.754Z,101287.16
2023-03-29T08:58:52.642Z,101289.51
2023-03-29T09:01:23.044Z,101286.20
2023-03-29T09:04:13.120Z,101286.70
2023-03-29T09:06:49.714Z,101281.36
2023-03-29T09:09:31.658Z,101277.81
2023-03-29T09:12:16.301Z,101275.05
2023-03-29T09:15:21.610Z,101274.23
2023-03-29T09:17:59.849Z,101272.15
2023-03-29T09:20:41.204Z,101271.88
2023-03-29T09:23:48.413Z,101262.13
2023-03-29T09:26:47.691Z,101264.33
2023-03-29T09:29:48.854Z,101261.11
2023-03-29T09:32:22.561Z,101259.92
2023-03-29T09:35:27.674Z,101256.86
2023-03-29T09:37:57.828Z,101249.74
2023-03-29T09:40:42.817Z,101247.29
2023-03-29T09:43:22.107Z,101247.00
2023-03-29T09:45:58.985Z,101237.71
2023-03-29T09:48:29.763Z,101239.85
2023-03-29T09:50:58.164Z,101234.34
2023-03-29T09:53:26.644Z,101235.93
2023-03-29T09:56:10.863Z,101235.70
2023-03-29T09:58:47.000Z,101234.45
2023-03-29T10:01:17.691Z,101229.19
2023-03-29T10:03:52.557Z,101224.44
2023-03-29T10:06:25.489Z,101218.99
2023-03-29T10:08:59.074Z,101212.69
2023-03-29T10:11:33.399Z,101206.91
2023-03-29T10:14:04.465Z,101198.45
2023-03-29T10:16:46.530Z,101197.16
2023-03-29T10:19:34.540Z,101190.90
2023-03-29T10:22:08.129Z,101186.92
2023-03-29T10:24:36.217Z,101182.84
2023-03-29T10:27:09.797Z,101185.46
2023-03-29T10:29:42.386Z,101184.17
2023-03-29T10:32:34.682Z,101184.23
2023-03-29T10:35:21.462Z,101185.33
2023-03-29T10:37:53.192Z,101176.19
2023-03-29T10:40:27.726Z,101168.90
2023-03-29T10:43:11.435Z,101172.69
2023-03-29T10:45:40.025Z,101168.84
2023-03-29T10:48:16.157Z,101164.91
2023-03-29T10:50:49.898Z,101163.48
2023-03-29T10:53:25.070Z,101158.27
2023-03-29T10:56:28.087Z,101160.21
2023-03-29T10:59:23.011Z,101154.16
2023-03-29T11:02:17.075Z,101154.31
2023-03-29T11:05:06.036Z,101157.48
2023-03-29T11:08:05.098Z,101149.38
2023-03-29T11:11:07.492Z,101143.48
2023-03-29T11:14:09.382Z,101141.48
2023-03-29T11:16:51.120Z,101134.92
2023-03-29T11:19:43.480Z,101129.48
2023-03-29T11:22:36.688Z,101129.22
2023-03-29T11:25:17.424Z,101124.95
2023-03-29T11:28:00.893Z,101124.73
2023-03-29T11:30:48.283Z,101110.72
2023-03-29T11:33:28.053Z,101110.69
2023-03-29T11:36:34.547Z,101110.35
2023-03-29T11:39:35.778Z,101105.95
2023-03-29T11:42:17.859Z,101093.91
2023-03-29T11:44:48.620Z,101088.13
2023-03-29T11:47:23.168Z,101089.02
2023-03-29T11:49:57.911Z,101085.52
2023-03-29T11:52:40.860Z,101079.39
2023-03-29T11:55:15.422Z,101072.29
2023-03-29T11:57:46.406Z,101068.49
2023-03-29T12:00:46.758Z,101061.48
2023-03-29T12:03:47.457Z,101057.97
2023-03-29T12:07:00.094Z,101048.33
2023-03-29T12:09:44.833Z,101042.69
2023-03-29T12:12:17.884Z,101042.81
2023-03-29T12:15:07.172Z,101038.30
2023-03-29T12:17:42.610Z,101036.89
2023-03-29T12:20:23.440Z,101034.22
2023-03-29T12:22:51.883Z,101032.07
2023-03-29T12:26:06.314Z,101024.75
2023-03-29T12:29:28.676Z,101029.65
2023-03-29T12:32:34.079Z,101030.75
2023-03-29T12:35:49.617Z,101022.55
2023-03-29T12:38:37.838Z,101012.86
2023-03-29T12:41:24.971Z,101008.85
2023-03-29T12:44:17.960Z,101015.27
2023-03-29T12:46:59.844Z,101011.66
2023-03-29T12:49:35.224Z,101009.50
2023-03-29T12:52:16.695Z,101008.02
2023-03-29T12:54:56.818Z,101004.86
2023-03-29T12:57:43.227Z,101001.60
2023-03-29T13:00:26.590Z,101002.28
2023-03-29T13:03:20.360Z,101004.26
2023-03-29T13:05:59.914Z,101002.64
2023-03-29T13:08:41.086Z,101001.30
2023-03-29T13:11:25.495Z,100999.41
2023-03-29T13:13:53.683Z,100997.27
2023-03-29T13:16:33.778Z,100988.08
2023-03-29T13:19:34.593Z,100981.19
2023-03-29T13:22:35.820Z,100976.92
2023-03-29T13:25:10.247Z,100976.08
2023-03-29T13:28:02.280Z,100969.12
2023-03-29T13:30:45.291Z,100966.33
2023-03-29T13:33:32.806Z,100969.30
2023-03-29T13:36:33.102Z,100960.60
2023-03-29T13:39:05.424Z,100956.16
2023-03-29T13:41:39.317Z,100955.23
2023-03-29T13:44:45.000Z,100950.39
2023-03-29T13:47:19.158Z,100946.35
2023-03-29T13:49:53.600Z,100943.52
2023-03-29T13:52:29.253Z,100943.64
2023-03-29T13:55:02.069Z,100938.22
2023-03-29T13:57:55.284Z,100942.01
2023-03-29T14:00:31.633Z,100944.37
2023-03-29T14:03:04.317Z,100937.44
2023-03-29T14:05:36.149Z,100934.88
2023-03-29T14:08:19.011Z,100935.30
2023-03-29T14:10:48.209Z,100933.11
2023-03-29T14:13:19.200Z,100930.61
2023-03-29T14:15:54.828Z,100936.33
2023-03-29T14:18:25.867Z,100935.29
2023-03-29T14:20:55.679Z,100931.30
2023-03-29T14:23:30.705Z,100926.36
2023-03-29T14:26:22.612Z,100929.61
2023-03-29T14:28:56.570Z,100923.69
2023-03-29T14:31:32.028Z,100916.81
2023-03-29T14:34:02.326Z,100907.98
2023-03-29T14:36:32.510Z,100908.81
2023-03-29T14:39:16.758Z,100906.21
2023-03-29T14:41:57.184Z,100903.73
2023-03-29T14:44:28.858Z,100905.80
2023-03-29T14:46:57.087Z,100907.24
2023-03-29T14:49:25.497Z,100899.47
2023-03-29T14:51:55.301Z,100897.04
2023-03-29T14:54:28.937Z,100892.58
2023-03-29T14:56:56.943Z,100891.19
2023-03-29T14:59:48.836Z,100885.77
2023-03-29T15:02:27.656Z,100883.00
2023-03-29T15:05:05.130Z,100878.04
2023-03-29T15:07:35.217Z,100879.51
2023-03-29T15:10:06.545Z,100875.10
2023-03-29T15:12:43.372Z,100875.95
2023-03-29T15:15:13.285Z,100868.53
2023-03-29T15:17:51.818Z,100869.23
2023-03-29T15:20:31.657Z,100867.60
2023-03-29T15:23:04.640Z,100865.75
2023-03-29T15:25:38.594Z,100863.95
2023-03-29T15:28:06.429Z,100858.33
2023-03-29T15:30:39.427Z,100854.80
2023-03-29T15:33:23.163Z,100850.91
2023-03-29T15:35:53.123Z,100848.73
2023-03-29T15:38:25.453Z,100845.00
2023-03-29T15:40:58.944Z,100843.04
2023-03-29T15:43:27.441Z,100846.35
2023-03-29T15:45:55.249Z,100843.95
2023-03-29T15:48:26.987Z,100840.35
2023-03-29T15:50:55.140Z,100844.70
2023-03-29T15:53:23.882Z,100850.61
2023-03-29T15:55:54.695Z,100856.91
2023-03-29T15:58:29.061Z,100851.67
2023-03-29T16:01:11.208Z,100852.34
2023-03-29T16:03:40.099Z,100848.83
2023-03-29T16:06:12.046Z,100850.86
2023-03-29T16:08:41.556Z,100848.17
2023-03-29T16:11:09.899Z,100855.74
2023-03-29T16:13:37.803Z,100856.46
2023-03-29T16:16:06.857Z,100856.84
2023-03-29T16:18:35.860Z,100861.64
2023-03-29T16:21:04.828Z,100862.59
2023-03-29T16:23:32.848Z,100860.52
2023-03-29T16:26:01.033Z,100853.84
2023-03-29T16:28:29.009Z,100860.73
2023-03-29T16:30:56.812Z,100854.52
2023-03-29T16:33:24.709Z,100858.62
2023-03-29T16:35:52.585Z,100864.59
2023-03-29T16:38:21.799Z,100870.35
2023-03-29T16:40:50.035Z,100873.40
2023-03-29T16:43:18.834Z,100869.40
2023-03-29T16:45:46.856Z,100862.13
2023-03-29T16:48:17.452Z,100857.73
2023-03-29T16:50:49.647Z,100856.02
2023-03-29T16:53:21.818Z,100863.73
2023-03-29T16:55:50.650Z,100866.63
2023-03-29T16:58:18.882Z,100860.77
2023-03-29T17:00:48.551Z,100856.07
2023-03-29T17:03:17.114Z,100852.03
2023-03-29T17:05:48.878Z,100842.60
2023-03-29T17:08:18.135Z,100845.30
2023-03-29T17:10:47.148Z,100844.00
2023-03-29T17:13:15.040Z,100837.61
2023-03-29T17:15:42.962Z,100834.24
2023-03-29T17:18:11.109Z,100832.95
2023-03-29T17:20:40.468Z,100833.70
2023-03-29T17:23:09.067Z,100844.99
2023-03-29T17:25:37.556Z,100846.67
2023-03-29T17:28:05.748Z,100842.68
2023-03-29T17:30:35.207Z,100833.73
2023-03-29T17:33:04.068Z,100827.47
2023-03-29T17:35:32.421Z,100832.25
2023-03-29T17:38:01.531Z,100838.48
2023-03-29T17:40:29.766Z,100843.90
2023-03-29T17:42:57.588Z,100843.90
2023-03-29T17:45:25.815Z,100842.43
2023-03-29T17:47:53.932Z,100840.29
2023-03-29T17:50:21.825Z,100844.80
2023-03-29T17:52:49.736Z,100840.15
2023-03-29T17:55:18.067Z,100840.95
2023-03-29T17:57:45.834Z,100840.66
2023-03-29T18:00:14.382Z,100845.16
2023-03-29T18:02:43.182Z,100855.06
2023-03-29T18:05:11.788Z,100846.61
2023-03-29T18:07:39.608Z,100844.84
2023-03-29T18:10:08.294Z,100846.27
2023-03-29T18:12:36.785Z,100850.52
2023-03-29T18:15:06.412Z,100852.66
2023-03-29T18:17:35.882Z,100855.45
2023-03-29T18:20:10.997Z,100854.84
2023-03-29T18:22:43.601Z,100855.80
2023-03-29T18:25:11.431Z,100854.34
2023-03-29T18:27:39.817Z,100852.64
2023-03-29T18:30:08.907Z,100853.33
2023-03-29T18:32:37.148Z,100855.97
2023-03-29T18:35:06.302Z,100858.11
2023-03-29T18:37:34.150Z,100860.42
2023-03-29T18:40:02.275Z,100862.16
2023-03-29T18:42:30.832Z,100865.05
2023-03-29T18:44:58.777Z,100864.85
2023-03-29T18:47:27.352Z,100861.70
2023-03-29T18:49:55.973Z,100865.30
2023-03-29T18:52:23.896Z,100862.12
2023-03-29T18:54:52.009Z,100864.02
2023-03-29T18:57:19.859Z,100859.45
2023-03-29T18:59:47.756Z,100858.55
2023-03-29T19:02:15.998Z,100857.63
2023-03-29T19:04:44.276Z,100861.19
2023-03-29T19:07:12.613Z,100856.63
2023-03-29T19:09:41.802Z,100854.80
2023-03-29T19:12:09.857Z,100852.27
2023-03-29T19:14:37.728Z,100854.02
2023-03-29T19:17:06.033Z,100847.81
2023-03-29T19:19:33.920Z,100847.69
2023-03-29T19:22:01.836Z,100841.36
2023-03-29T19:24:29.996Z,100842.86
2023-03-29T19:26:58.380Z,100842.63
2023-03-29T19:29:26.334Z,100838.72
2023-03-29T19:31:54.793Z,100838.42
2023-03-29T19:34:24.415Z,100842.30
2023-03-29T19:36:53.997Z,100838.97
2023-03-29T19:39:22.096Z,100838.13
2023-03-29T19:41:49.995Z,100836.95
2023-03-29T19:44:17.886Z,100841.02
2023-03-29T19:46:45.777Z,100837.02
2023-03-29T19:49:14.008Z,100843.02
2023-03-29T19:51:43.120Z,100840.93
2023-03-29T19:54:13.353Z,100842.46
2023-03-29T19:56:42.792Z,100840.75
2023-03-29T19:59:11.292Z,100841.35
2023-03-29T20:01:42.763Z,100838.65
2023-03-29T20:04:11.894Z,100837.67
2023-03-29T20:06:40.007Z,100835.84
2023-03-29T20:09:08.782Z,100838.96
2023-03-29T20:11:37.842Z,100833.27
2023-03-29T20:14:05.700Z,100832.04
2023-03-29T20:16:34.958Z,100832.60
2023-03-29T20:19:04.111Z,100834.77
2023-03-29T20:21:37.437Z,100832.38
2023-03-29T20:24:06.112Z,100828.61
2023-03-29T20:26:34.011Z,100827.97
2023-03-29T20:29:02.126Z,100824.83
2023-03-29T20:31:30.075Z,100820.49
2023-03-29T20:33:58.043Z,100811.84
2023-03-29T20:36:26.731Z,100819.44
2023-03-29T20:38:56.314Z,100815.17
2023-03-29T20:41:24.604Z,100811.25
2023-03-29T20:43:58.506Z,100809.73
2023-03-29T20:46:34.947Z,100804.52
2023-03-29T20:49:05.037Z,100803.46
2023-03-29T20:51:32.918Z,100805.10
2023-03-29T20:54:03.869Z,100806.08
2023-03-29T20:56:34.371Z,100803.50
2023-03-29T20:59:04.175Z,100803.86
2023-03-29T21:01:35.068Z,100802.06
2023-03-29T21:04:03.112Z,100805.19
2023-03-29T21:06:31.685Z,100804.17
2023-03-29T21:08:59.415Z,100796.79
2023-03-29T21:11:27.680Z,100796.60
2023-03-29T21:13:55.550Z,100791.41
2023-03-29T21:16:25.327Z,100788.51
2023-03-29T21:18:53.376Z,100786.09
2023-03-29T21:21:22.780Z,100787.56
2023-03-29T21:23:50.889Z,100784.36
2023-03-29T21:26:18.727Z,100777.52
2023-03-29T21:28:48.635Z,100774.10
2023-03-29T21:31:16.635Z,100778.98
2023-03-29T21:33:44.623Z,100776.29
2023-03-29T21:36:12.522Z,100776.40
2023-03-29T21:38:40.544Z,100771.98
2023-03-29T21:41:12.300Z,100768.45
2023-03-29T21:43:40.497Z,100765.23
2023-03-29T21:46:09.407Z,100765.11
2023-03-29T21:48:37.781Z,100760.07
2023-03-29T21:51:06.496Z,100758.84
2023-03-29T21:53:35.069Z,100756.23
2023-03-29T21:56:03.280Z,100751.79
2023-03-29T21:58:31.320Z,100750.58
2023-03-29T22:00:59.762Z,100747.34
2023-03-29T22:03:28.384Z,100746.44
2023-03-29T22:05:58.623Z,100745.57
2023-03-29T22:08:27.013Z,100737.45
2023-03-29T22:10:57.058Z,100734.07
2023-03-29T22:13:28.300Z,100732.80
2023-03-29T22:16:01.393Z,100723.15
2023-03-29T22:18:42.398Z,100721.29
2023-03-29T22:21:20.424Z,100718.95
2023-03-29T22:23:50.638Z,100717.69
2023-03-29T22:26:20.101Z,100717.45
2023-03-29T22:28:47.998Z,100714.39
2023-03-29T22:31:18.956Z,100713.94
2023-03-29T22:33:47.577Z,100707.72
2023-03-29T22:36:26.753Z,100708.29
2023-03-29T22:38:55.100Z,100705.81
2023-03-29T22:41:24.892Z,100703.15
2023-03-29T22:43:54.838Z,100708.98
2023-03-29T22:46:23.597Z,100710.80
2023-03-29T22:48:52.400Z,100710.82
2023-03-29T22:51:20.907Z,100706.46
2023-03-29T22:53:48.934Z,100708.02
2023-03-29T22:56:17.893Z,100708.80
2023-03-29T22:58:46.127Z,100703.50
2023-03-29T23:01:14.050Z,100699.23
2023-03-29T23:03:41.965Z,100704.20
2023-03-29T23:06:09.909Z,100696.48
2023-03-29T23:08:38.109Z,100688.77
2023-03-29T23:11:07.563Z,100691.50
2023-03-29T23:13:35.786Z,100690.09
2023-03-29T23:16:04.990Z,100684.83
2023-03-29T23:18:35.010Z,100682.95
2023-03-29T23:21:06.140Z,100681.35
2023-03-29T23:23:35.700Z,100685.73
2023-03-29T23:26:04.445Z,100685.84
2023-03-29T23:28:34.820Z,100684.19
2023-03-29T23:31:09.780Z,100680.20
2023-03-29T23:33:42.770Z,100683.27
2023-03-29T23:36:14.206Z,100686.09
2023-03-29T23:38:44.892Z,100680.77
2023-03-29T23:41:13.392Z,100686.27
2023-03-29T23:43:43.910Z,100678.70
2023-03-29T23:46:17.412Z,100679.13
2023-03-29T23:48:46.616Z,100675.33
2023-03-29T23:51:18.230Z,100671.89
2023-03-29T23:53:46.723Z,100668.08
2023-03-29T23:56:14.794Z,100663.86
2023-03-29T23:58:42.800Z,100663.05
